Time;durP1;ratioP1;P1;durP2;ratioP2;P2;SDS_P1;SDS_P2;PMS_P1;PMS_P2;Temp;Humidity;BMP_temperature;BMP_pressure;BME280_temperature;BME280_humidity;BME280_pressure;Samples;Min_cycle;Max_cycle;Signal;HPM_P1;HPM_P2
2020/12/25 00:00:26;;;;;;;0.10;0.10;;;;;;;0.73;100.00;99980.12;1709981;82;21181;-57
2020/12/25 00:02:54;;;;;;;0.88;0.50;;;;;;;0.74;100.00;99979.09;1710111;83;21588;-57
2020/12/25 00:05:23;;;;;;;0.05;0.05;;;;;;;0.76;100.00;99972.93;1704817;82;21121;-57
2020/12/25 00:07:50;;;;;;;0.10;0.10;;;;;;;0.78;100.00;99969.50;1700734;83;21168;-57
2020/12/25 00:10:18;;;;;;;0.03;0.03;;;;;;;0.81;100.00;99970.91;1702746;81;21218;-56
2020/12/25 00:12:45;;;;;;;0.00;0.00;;;;;;;0.83;100.00;99957.53;1706617;83;21207;-57
2020/12/25 00:15:13;;;;;;;0.13;0.13;;;;;;;0.84;100.00;99955.66;1701647;81;21593;-57
2020/12/25 00:17:40;;;;;;;0.23;0.20;;;;;;;0.86;100.00;99957.06;1703033;83;21106;-57
2020/12/25 00:20:07;;;;;;;0.05;0.05;;;;;;;0.87;100.00;99944.47;1702951;81;21109;-57
2020/12/25 00:22:36;;;;;;;0.10;0.10;;;;;;;0.89;100.00;99935.64;1700736;83;21170;-57
2020/12/25 00:25:03;;;;;;;0.05;0.05;;;;;;;0.92;100.00;99933.02;1703302;83;21479;-57
2020/12/25 00:27:31;;;;;;;0.00;0.00;;;;;;;0.94;100.00;99929.55;1741978;81;21117;-57
2020/12/25 00:29:58;;;;;;;0.05;0.05;;;;;;;0.94;100.00;99920.98;1749592;80;21167;-57
2020/12/25 00:32:26;;;;;;;0.00;0.00;;;;;;;0.96;100.00;99931.50;1708042;83;21194;-57
2020/12/25 00:34:53;;;;;;;0.20;0.20;;;;;;;0.96;100.00;99927.46;1717003;82;21130;-57
2020/12/25 00:37:23;;;;;;;0.10;0.10;;;;;;;0.98;100.00;99917.30;1713352;82;21175;-57
2020/12/25 00:39:50;;;;;;;0.10;0.10;;;;;;;1.00;100.00;99919.23;1714795;82;21524;-56
2020/12/25 00:42:18;;;;;;;0.10;0.10;;;;;;;1.03;100.00;99905.31;1710399;82;21741;-56
2020/12/25 00:44:45;;;;;;;0.00;0.00;;;;;;;1.06;100.00;99906.20;1716767;82;21143;-56
2020/12/25 00:47:13;;;;;;;0.05;0.05;;;;;;;1.11;100.00;99914.92;1706255;82;21183;-56
2020/12/25 00:49:40;;;;;;;0.00;0.00;;;;;;;1.12;100.00;99901.25;1720197;82;21142;-56
2020/12/25 00:52:08;;;;;;;0.10;0.10;;;;;;;1.13;100.00;99882.70;1708921;82;21129;-56
2020/12/25 00:54:36;;;;;;;0.10;0.10;;;;;;;1.14;100.00;99878.97;1716223;82;20944;-57
2020/12/25 00:57:11;;;;;;;0.00;0.00;;;;;;;1.16;100.00;99876.84;1708439;82;21552;-56
2020/12/25 00:59:56;;;;;;;0.25;0.25;;;;;;;1.22;100.00;99859.78;1825896;76;29594;-55
2020/12/25 01:02:28;;;;;;;0.23;0.23;;;;;;;1.17;100.00;99844.86;1783156;78;21137;-57
2020/12/25 01:04:53;;;;;;;0.10;0.10;;;;;;;1.18;100.00;99851.88;1775979;80;21822;-57
2020/12/25 01:07:21;;;;;;;0.05;0.05;;;;;;;1.22;100.00;99836.91;1772647;78;21519;-57
2020/12/25 01:09:48;;;;;;;0.00;0.00;;;;;;;1.23;100.00;99815.66;1699968;84;21133;-56
2020/12/25 01:12:15;;;;;;;0.00;0.00;;;;;;;1.23;100.00;99819.70;1695670;82;21586;-56
2020/12/25 01:14:43;;;;;;;0.08;0.08;;;;;;;1.23;100.00;99817.00;1725716;82;21141;-56
2020/12/25 01:17:11;;;;;;;0.00;0.00;;;;;;;1.24;100.00;99810.59;1716792;81;21629;-56
2020/12/25 01:19:38;;;;;;;0.00;0.00;;;;;;;1.27;100.00;99811.45;1722184;82;21126;-57
2020/12/25 01:22:06;;;;;;;0.00;0.00;;;;;;;1.28;100.00;99802.84;1729917;82;21129;-56
2020/12/25 01:24:34;;;;;;;0.20;0.20;;;;;;;1.30;100.00;99798.05;1716527;82;21187;-56
2020/12/25 01:27:01;;;;;;;0.00;0.00;;;;;;;1.32;100.00;99782.49;1717589;81;21529;-57
2020/12/25 01:29:28;;;;;;;0.00;0.00;;;;;;;1.36;100.00;99772.06;1710781;82;21182;-57
2020/12/25 01:31:56;;;;;;;0.00;0.00;;;;;;;1.38;100.00;99773.46;1734040;80;21153;-57
2020/12/25 01:34:25;;;;;;;0.00;0.00;;;;;;;1.41;100.00;99769.48;1732350;81;21156;-57
2020/12/25 01:36:53;;;;;;;0.30;0.30;;;;;;;1.43;100.00;99787.03;1730300;80;21668;-56
2020/12/25 01:39:20;;;;;;;0.00;0.00;;;;;;;1.45;100.00;99785.47;1740821;81;21523;-57
2020/12/25 01:41:48;;;;;;;0.30;0.30;;;;;;;1.46;100.00;99791.16;1704186;81;21152;-59
2020/12/25 01:44:15;;;;;;;0.00;0.00;;;;;;;1.45;100.00;99787.63;1698024;83;21199;-59
2020/12/25 01:46:43;;;;;;;0.00;0.00;;;;;;;1.47;100.00;99790.09;1744162;80;21644;-59
2020/12/25 01:49:11;;;;;;;0.00;0.00;;;;;;;1.48;100.00;99783.14;1733530;81;21109;-60
2020/12/25 01:51:39;;;;;;;0.00;0.00;;;;;;;1.50;100.00;99778.31;1703312;81;21150;-59
2020/12/25 01:54:06;;;;;;;0.00;0.00;;;;;;;1.53;100.00;99777.55;1703344;83;21149;-59
2020/12/25 01:56:34;;;;;;;0.15;0.13;;;;;;;1.55;100.00;99764.67;1712247;83;21173;-59
2020/12/25 01:59:01;;;;;;;0.10;0.10;;;;;;;1.55;100.00;99776.27;1720640;81;21120;-59
2020/12/25 03:10:00;;;;;;;0.05;0.05;;;;;;;1.98;100.00;99758.84;1705292;82;21177;-60
2020/12/25 03:12:27;;;;;;;0.00;0.00;;;;;;;2.00;100.00;99759.93;1700031;83;21028;-60
2020/12/25 03:14:55;;;;;;;0.00;0.00;;;;;;;2.02;100.00;99765.37;1693662;84;21109;-59
2020/12/25 03:17:22;;;;;;;0.00;0.00;;;;;;;2.06;100.00;99773.27;1688381;84;21589;-59
2020/12/25 03:19:50;;;;;;;0.00;0.00;;;;;;;2.08;100.00;99765.77;1690162;83;21550;-59
2020/12/25 03:22:17;;;;;;;0.00;0.00;;;;;;;2.12;100.00;99756.13;1698668;84;21163;-59
2020/12/25 03:24:45;;;;;;;0.10;0.10;;;;;;;2.13;100.00;99753.73;1690320;84;21151;-59
2020/12/25 03:27:12;;;;;;;0.37;0.37;;;;;;;2.17;100.00;99750.55;1758492;81;21818;-59
2020/12/25 03:29:39;;;;;;;0.00;0.00;;;;;;;2.19;100.00;99750.59;1736633;81;21419;-59
2020/12/25 03:32:07;;;;;;;0.00;0.00;;;;;;;2.21;100.00;99753.06;1750461;81;21151;-59
2020/12/25 03:34:34;;;;;;;0.00;0.00;;;;;;;2.22;100.00;99764.13;1757596;80;21170;-60
2020/12/25 03:37:02;;;;;;;0.30;0.30;;;;;;;2.23;100.00;99765.78;1766003;80;21689;-59
2020/12/25 03:39:29;;;;;;;0.00;0.00;;;;;;;2.24;100.00;99766.87;1751209;81;21198;-59
2020/12/25 03:41:57;;;;;;;0.00;0.00;;;;;;;2.26;100.00;99767.45;1758960;81;21146;-59
2020/12/25 03:44:24;;;;;;;0.00;0.00;;;;;;;2.27;100.00;99760.17;1757563;80;21166;-59
2020/12/25 03:46:52;;;;;;;0.00;0.00;;;;;;;2.27;100.00;99766.38;1703366;82;21147;-59
2020/12/25 03:49:19;;;;;;;0.00;0.00;;;;;;;2.29;100.00;99767.50;1715733;83;21163;-59
2020/12/25 03:51:47;;;;;;;0.00;0.00;;;;;;;2.31;100.00;99774.28;1705790;83;21143;-59
2020/12/25 03:54:14;;;;;;;0.00;0.00;;;;;;;2.33;100.00;99772.70;1695085;84;21672;-59
2020/12/25 03:56:41;;;;;;;0.00;0.00;;;;;;;2.33;100.00;99772.17;1697322;83;21111;-60
2020/12/25 03:59:09;;;;;;;0.00;0.00;;;;;;;2.35;100.00;99775.45;1694881;84;21155;-60
2020/12/25 04:01:36;;;;;;;0.00;0.00;;;;;;;2.36;100.00;99773.56;1696385;84;20999;-59
2020/12/25 04:04:04;;;;;;;0.00;0.00;;;;;;;2.37;100.00;99768.44;1695799;84;21123;-60
2020/12/25 04:06:32;;;;;;;0.00;0.00;;;;;;;2.39;100.00;99772.26;1695815;84;21146;-60
2020/12/25 04:08:59;;;;;;;0.03;0.03;;;;;;;2.42;100.00;99776.62;1695133;83;21179;-60
2020/12/25 04:11:27;;;;;;;0.00;0.00;;;;;;;2.44;100.00;99778.55;1751051;80;21139;-61
2020/12/25 04:13:55;;;;;;;0.00;0.00;;;;;;;2.44;100.00;99775.86;1748949;81;21210;-61
2020/12/25 04:16:22;;;;;;;0.00;0.00;;;;;;;2.46;100.00;99779.67;1742940;81;21107;-61
2020/12/25 04:18:50;;;;;;;0.00;0.00;;;;;;;2.47;100.00;99780.76;1742900;81;21127;-61
2020/12/25 04:21:19;;;;;;;0.10;0.10;;;;;;;2.47;100.00;99775.36;1755972;80;21501;-61
2020/12/25 04:23:46;;;;;;;0.00;0.00;;;;;;;2.48;100.00;99769.46;1730625;80;21119;-61
2020/12/25 04:26:14;;;;;;;0.10;0.10;;;;;;;2.48;100.00;99787.80;1746931;81;21539;-61
2020/12/25 04:28:41;;;;;;;0.00;0.00;;;;;;;2.48;100.00;99781.06;1765010;79;21115;-60
2020/12/25 04:31:09;;;;;;;0.33;0.10;;;;;;;2.48;100.00;99777.55;1757769;81;21163;-61
2020/12/25 04:33:36;;;;;;;0.00;0.00;;;;;;;2.47;100.00;99783.45;1755457;81;21527;-60
2020/12/25 04:36:04;;;;;;;0.00;0.00;;;;;;;2.49;100.00;99786.73;1763533;81;21691;-60
2020/12/25 04:38:31;;;;;;;0.10;0.10;;;;;;;2.49;100.00;99779.98;1745955;79;21145;-60
2020/12/25 04:40:59;;;;;;;0.00;0.00;;;;;;;2.49;100.00;99786.73;1746947;81;21122;-60
2020/12/25 04:43:26;;;;;;;0.00;0.00;;;;;;;2.51;100.00;99785.16;1752478;79;21122;-59
2020/12/25 04:45:54;;;;;;;0.00;0.00;;;;;;;2.51;100.00;99790.02;1759198;79;21126;-60
2020/12/25 04:48:22;;;;;;;0.00;0.00;;;;;;;2.52;100.00;99787.63;1744943;81;21475;-59
2020/12/25 04:50:50;;;;;;;0.00;0.00;;;;;;;2.53;100.00;99787.09;1751729;81;21211;-60
2020/12/25 04:53:17;;;;;;;0.00;0.00;;;;;;;2.53;100.00;99799.22;1683051;83;21178;-59
2020/12/25 04:55:44;;;;;;;0.00;0.00;;;;;;;2.51;100.00;99792.70;1731461;81;21126;-60
2020/12/25 04:58:12;;;;;;;0.00;0.00;;;;;;;2.51;100.00;99802.69;1764669;79;21095;-60
2020/12/25 05:00:39;;;;;;;0.00;0.00;;;;;;;2.51;100.00;99798.10;1767164;79;21150;-60
2020/12/25 05:03:07;;;;;;;0.00;0.00;;;;;;;2.51;100.00;99802.15;1758420;79;21509;-60
2020/12/25 05:05:35;;;;;;;0.10;0.10;;;;;;;2.50;100.00;99806.45;1709672;82;21134;-60
2020/12/25 05:08:03;;;;;;;0.00;0.00;;;;;;;2.52;100.00;99804.31;1744946;79;21111;-60
2020/12/25 05:10:30;;;;;;;0.10;0.10;;;;;;;2.51;100.00;99801.34;1700364;83;21129;-60
2020/12/25 05:12:57;;;;;;;0.00;0.00;;;;;;;2.50;100.00;99801.06;1722790;81;21166;-60
2020/12/25 05:15:25;;;;;;;0.00;0.00;;;;;;;2.52;100.00;99809.20;1755497;80;21170;-57
2020/12/25 05:17:55;;;;;;;0.00;0.00;;;;;;;2.50;100.00;99797.83;1747231;79;21574;-58
2020/12/25 05:20:23;;;;;;;0.00;0.00;;;;;;;2.50;100.00;99791.08;1744537;80;21410;-58
2020/12/25 05:22:50;;;;;;;0.00;0.00;;;;;;;2.49;100.00;99781.34;1725090;80;21134;-57
2020/12/25 05:25:19;;;;;;;0.00;0.00;;;;;;;2.48;100.00;99786.45;1762375;80;21170;-59
2020/12/25 05:27:47;;;;;;;0.70;0.20;;;;;;;2.48;100.00;99789.16;1754733;79;21128;-58
2020/12/25 05:30:14;;;;;;;0.03;0.03;;;;;;;2.47;100.00;99788.84;1746337;81;21135;-58
2020/12/25 05:32:42;;;;;;;0.00;0.00;;;;;;;2.46;100.00;99800.70;1760586;79;21134;-59
2020/12/25 05:35:12;;;;;;;0.05;0.05;;;;;;;2.47;100.00;99794.24;1703253;81;21142;-59
2020/12/25 05:37:40;;;;;;;0.00;0.00;;;;;;;2.47;100.00;99796.94;1720716;81;21561;-59
2020/12/25 05:40:09;;;;;;;0.00;0.00;;;;;;;2.47;100.00;99809.08;1757569;79;20991;-59
2020/12/25 05:42:48;;;;;;;0.00;0.00;;;;;;;2.47;100.00;99807.73;1749415;81;21130;-59
2020/12/25 05:45:19;;;;;;;0.00;0.00;;;;;;;2.46;100.00;99798.02;1759564;81;21133;-59
2020/12/25 05:47:47;;;;;;;0.00;0.00;;;;;;;2.47;100.00;99792.08;1748168;81;21115;-59
2020/12/25 05:50:22;;;;;;;0.00;0.00;;;;;;;2.47;100.00;99792.08;1740040;79;21067;-59
2020/12/25 05:52:50;;;;;;;0.65;0.65;;;;;;;2.46;100.00;99798.02;1747167;80;21498;-59
2020/12/25 05:55:18;;;;;;;0.05;0.05;;;;;;;2.47;100.00;99793.43;1725220;81;21126;-59
2020/12/25 05:57:54;;;;;;;0.00;0.00;;;;;;;2.46;100.00;99804.75;1749559;80;22022;-59
2020/12/25 06:00:23;;;;;;;0.00;0.00;;;;;;;2.46;100.00;99795.84;1761350;80;21166;-59
2020/12/25 06:02:52;;;;;;;0.03;0.03;;;;;;;2.47;100.00;99798.28;1756735;81;21170;-59
2020/12/25 06:05:23;;;;;;;0.10;0.10;;;;;;;2.47;100.00;99800.98;1745342;79;21123;-59
2020/12/25 06:07:56;;;;;;;0.00;0.00;;;;;;;2.46;100.00;99800.70;1757036;80;21157;-59
2020/12/25 06:10:27;;;;;;;0.00;0.00;;;;;;;2.46;100.00;99795.31;1749967;79;21117;-58
2020/12/25 06:12:56;;;;;;;0.00;0.00;;;;;;;2.45;100.00;99795.04;1760531;80;21144;-59
2020/12/25 06:15:31;;;;;;;0.00;0.00;;;;;;;2.46;100.00;99798.02;1747207;79;21115;-59
2020/12/25 06:18:37;;;;;;;0.10;0.10;;;;;;;2.45;100.00;99801.78;1755903;81;21609;-59
2020/12/25 06:21:11;;;;;;;0.00;0.00;;;;;;;2.45;100.00;99800.44;1748342;79;21131;-59
2020/12/25 06:23:40;;;;;;;0.00;0.00;;;;;;;2.45;100.00;99799.59;1759661;80;21115;-59
2020/12/25 06:26:09;;;;;;;0.05;0.05;;;;;;;2.44;100.00;99801.47;1751625;81;21217;-59
2020/12/25 06:28:41;;;;;;;0.28;0.28;;;;;;;2.44;100.00;99797.43;1754686;79;21122;-59
2020/12/25 06:31:12;;;;;;;0.00;0.00;;;;;;;2.45;100.00;99788.80;1760665;81;21126;-60
2020/12/25 06:33:39;;;;;;;0.03;0.03;;;;;;;2.43;100.00;99793.11;1753598;79;21119;-59
2020/12/25 06:36:08;;;;;;;0.00;0.00;;;;;;;2.43;100.00;99796.34;1747444;81;21609;-59
2020/12/25 06:38:41;;;;;;;0.00;0.00;;;;;;;2.44;100.00;99800.12;1757147;79;21084;-59
2020/12/25 06:41:09;;;;;;;0.00;0.00;;;;;;;2.43;100.00;99799.85;1760482;81;21132;-59
2020/12/25 06:43:36;;;;;;;0.00;0.00;;;;;;;2.42;100.00;99804.94;1746976;79;21127;-58
2020/12/25 06:46:04;;;;;;;1.22;0.45;;;;;;;2.43;100.00;99808.48;1758963;81;21115;-58
2020/12/25 06:48:31;;;;;;;0.00;0.00;;;;;;;2.43;100.00;99811.98;1744427;79;21134;-58
2020/12/25 06:51:00;;;;;;;0.00;0.00;;;;;;;2.43;100.00;99807.94;1755377;80;21441;-58
2020/12/25 06:53:39;;;;;;;0.13;0.13;;;;;;;2.43;100.00;99819.27;1746699;79;21163;-58
2020/12/25 06:56:19;;;;;;;0.08;0.08;;;;;;;2.44;100.00;99825.74;1754037;80;21552;-58
2020/12/25 06:58:53;;;;;;;0.00;0.00;;;;;;;2.43;100.00;99823.31;1745872;79;21155;-58
2020/12/25 07:01:38;;;;;;;0.00;0.00;;;;;;;2.42;100.00;99829.74;1759724;80;21498;-58
2020/12/25 07:04:05;;;;;;;0.00;0.00;;;;;;;2.42;100.00;99832.44;1761312;79;21099;-58
2020/12/25 07:06:33;;;;;;;0.00;0.00;;;;;;;2.42;100.00;99825.70;1749495;81;21142;-58
2020/12/25 07:09:10;;;;;;;1.00;0.28;;;;;;;2.43;100.00;99831.40;1757403;79;21182;-58
2020/12/25 07:11:38;;;;;;;0.00;0.00;;;;;;;2.42;100.00;99837.30;1746214;81;21263;-58
2020/12/25 07:14:05;;;;;;;0.03;0.03;;;;;;;2.44;100.00;99835.19;1744151;79;21840;-58
2020/12/25 07:16:33;;;;;;;0.00;0.00;;;;;;;2.45;100.00;99836.00;1736389;79;21529;-58
2020/12/25 07:19:00;;;;;;;0.00;0.00;;;;;;;2.44;100.00;99841.92;1704833;81;21151;-58
2020/12/25 07:21:28;;;;;;;0.00;0.00;;;;;;;2.45;100.00;99838.19;1734841;79;21191;-58
2020/12/25 07:23:56;;;;;;;0.00;0.00;;;;;;;2.46;100.00;99830.38;1757536;81;21276;-58
2020/12/25 07:26:23;;;;;;;0.00;0.00;;;;;;;2.48;100.00;99843.63;1753655;79;21135;-58
2020/12/25 07:28:51;;;;;;;0.00;0.00;;;;;;;2.49;100.00;99839.32;1757535;81;21174;-57
2020/12/25 07:31:19;;;;;;;0.45;0.33;;;;;;;2.52;100.00;99842.06;1739053;80;21194;-57
2020/12/25 07:33:55;;;;;;;0.53;0.53;;;;;;;2.55;100.00;99842.42;1756800;81;21530;-57
2020/12/25 07:36:23;;;;;;;0.03;0.03;;;;;;;2.58;100.00;99837.07;1758618;80;21430;-57
2020/12/25 07:39:03;;;;;;;0.00;0.00;;;;;;;2.62;100.00;99844.14;1719766;81;21106;-57
2020/12/25 07:41:32;;;;;;;0.00;0.00;;;;;;;2.66;100.00;99839.91;1746896;79;21523;-57
2020/12/25 07:44:02;;;;;;;0.00;0.00;;;;;;;2.70;100.00;99838.38;1722712;82;21613;-57
2020/12/25 07:46:31;;;;;;;1.65;0.10;;;;;;;2.74;100.00;99844.91;1747656;81;21143;-57
2020/12/25 07:48:58;;;;;;;0.10;0.10;;;;;;;2.77;100.00;99845.79;1740673;80;21175;-57
2020/12/25 07:51:28;;;;;;;0.28;0.28;;;;;;;2.79;100.00;99850.38;1751352;79;21497;-57
2020/12/25 07:53:56;;;;;;;0.00;0.00;;;;;;;2.81;100.00;99846.92;1747358;81;21218;-57
2020/12/25 07:56:28;;;;;;;0.20;0.20;;;;;;;2.83;100.00;99856.95;1767440;80;21107;-57
2020/12/25 07:58:56;;;;;;;0.00;0.00;;;;;;;2.85;100.00;99861.57;1702782;82;21270;-57
2020/12/25 08:01:27;;;;;;;1.07;0.33;;;;;;;2.86;100.00;99852.41;1747725;81;21134;-57
2020/12/25 08:03:59;;;;;;;0.00;0.00;;;;;;;2.87;100.00;99857.27;1768556;80;21198;-58
2020/12/25 08:06:28;;;;;;;0.00;0.00;;;;;;;2.87;100.00;99859.97;1756862;80;21950;-58
2020/12/25 08:09:08;;;;;;;0.00;0.00;;;;;;;2.86;100.00;99864.55;1749025;80;21253;-57
2020/12/25 08:11:38;;;;;;;0.00;0.00;;;;;;;2.88;100.00;99864.31;1724733;82;21172;-58
2020/12/25 08:14:07;;;;;;;0.00;0.00;;;;;;;2.88;100.00;99865.13;1701841;83;21142;-58
2020/12/25 08:16:41;;;;;;;0.00;0.00;;;;;;;2.89;100.00;99868.10;1675149;84;21153;-57
2020/12/25 08:19:09;;;;;;;0.08;0.08;;;;;;;2.91;100.00;99870.03;1662404;84;21438;-57
2020/12/25 08:21:38;;;;;;;0.10;0.10;;;;;;;2.93;100.00;99877.90;1758233;80;21150;-57
2020/12/25 08:24:07;;;;;;;0.00;0.00;;;;;;;2.92;100.00;99877.09;1742888;81;21134;-57
2020/12/25 08:26:39;;;;;;;0.00;0.00;;;;;;;2.95;100.00;99869.03;1763561;81;21478;-57
2020/12/25 08:29:07;;;;;;;0.10;0.10;;;;;;;2.98;100.00;99875.28;1749161;81;21127;-57
2020/12/25 08:31:39;;;;;;;0.00;0.00;;;;;;;3.01;100.00;99876.95;1753032;81;21139;-57
2020/12/25 08:34:21;;;;;;;0.00;0.00;;;;;;;3.06;100.00;99875.41;1713008;82;21171;-57
2020/12/25 08:36:58;;;;;;;0.00;0.00;;;;;;;3.11;100.00;99871.45;1765668;80;21134;-57
2020/12/25 08:39:30;;;;;;;0.00;0.00;;;;;;;3.18;100.00;99861.31;1767628;80;21154;-57
2020/12/25 08:41:58;;;;;;;0.00;0.00;;;;;;;3.24;100.00;99863.05;1683471;84;27425;-57
2020/12/25 08:44:26;;;;;;;0.00;0.00;;;;;;;3.30;100.00;99870.69;1752421;80;21106;-57
2020/12/25 08:47:09;;;;;;;0.10;0.10;;;;;;;3.34;100.00;99868.61;1750619;80;21152;-57
2020/12/25 08:49:37;;;;;;;0.00;0.00;;;;;;;3.36;100.00;99866.99;1744733;80;21526;-57
2020/12/25 08:52:22;;;;;;;0.00;0.00;;;;;;;3.39;100.00;99859.77;1751820;80;21127;-57
2020/12/25 08:54:59;;;;;;;0.00;0.00;;;;;;;3.42;100.00;99864.67;1757911;81;21473;-57
2020/12/25 08:57:29;;;;;;;0.00;0.00;;;;;;;3.48;100.00;99870.97;1756059;81;21462;-57
2020/12/25 09:00:07;;;;;;;0.00;0.00;;;;;;;3.49;100.00;99864.48;1748764;81;21672;-57
2020/12/25 09:02:39;;;;;;;0.20;0.20;;;;;;;3.49;100.00;99866.68;1757366;81;21178;-57
2020/12/25 09:05:07;;;;;;;0.05;0.05;;;;;;;3.51;100.00;99874.52;1745577;81;21472;-57
2020/12/25 09:07:34;;;;;;;0.00;0.00;;;;;;;3.52;100.00;99864.02;1710431;82;21163;-56
2020/12/25 09:10:02;;;;;;;0.00;0.00;;;;;;;3.52;100.00;99853.21;1756006;81;21154;-56
2020/12/25 09:12:30;;;;;;;0.10;0.10;;;;;;;3.54;100.00;99864.59;1755789;81;21151;-56
2020/12/25 09:14:59;;;;;;;0.00;0.00;;;;;;;3.54;100.00;99864.05;1747114;80;21016;-56
2020/12/25 09:17:26;;;;;;;0.10;0.10;;;;;;;3.57;100.00;99861.39;1760020;81;21116;-56
2020/12/25 09:19:54;;;;;;;0.17;0.15;;;;;;;3.60;100.00;99859.53;1745170;80;21175;-56
2020/12/25 09:22:21;;;;;;;0.10;0.10;;;;;;;3.63;100.00;99860.38;1753397;81;21146;-56
2020/12/25 09:24:49;;;;;;;0.50;0.50;;;;;;;3.65;100.00;99856.37;1745466;81;21126;-56
2020/12/25 09:27:16;;;;;;;0.10;0.10;;;;;;;3.67;100.00;99856.13;1750593;80;21171;-56
2020/12/25 09:29:44;;;;;;;0.10;0.10;;;;;;;3.69;100.00;99851.84;1761375;80;21123;-56
2020/12/25 09:32:12;;;;;;;0.15;0.15;;;;;;;3.69;100.00;99859.41;1757649;81;21115;-56
2020/12/25 09:34:40;;;;;;;0.17;0.17;;;;;;;3.70;100.00;99859.68;1756688;81;21485;-56
2020/12/25 09:37:07;;;;;;;0.00;0.00;;;;;;;3.71;100.00;99860.49;1752716;81;21553;-56
2020/12/25 09:39:36;;;;;;;0.42;0.42;;;;;;;3.73;100.00;99863.77;1743533;80;21605;-56
2020/12/25 09:42:04;;;;;;;0.45;0.40;;;;;;;3.76;100.00;99863.27;1746902;81;21170;-56
2020/12/25 09:44:31;;;;;;;0.00;0.00;;;;;;;3.82;100.00;99864.98;1767291;81;21573;-56
2020/12/25 09:46:58;;;;;;;1.20;0.65;;;;;;;3.88;100.00;99866.17;1742605;81;21146;-56
2020/12/25 09:49:26;;;;;;;0.00;0.00;;;;;;;3.95;100.00;99873.27;1744115;81;21400;-56
2020/12/25 09:51:55;;;;;;;0.20;0.20;;;;;;;4.03;100.00;99867.42;1752216;81;21162;-56
2020/12/25 09:54:22;;;;;;;0.00;0.00;;;;;;;4.07;100.00;99867.21;1757813;81;21153;-56
2020/12/25 09:56:50;;;;;;;0.23;0.23;;;;;;;4.15;100.00;99862.71;1768356;81;21153;-56
2020/12/25 09:59:17;;;;;;;0.10;0.10;;;;;;;4.22;100.00;99856.58;1752292;81;21127;-55
2020/12/25 10:01:45;;;;;;;1.47;1.35;;;;;;;4.34;100.00;99851.59;1733669;81;21167;-55
2020/12/25 10:04:12;;;;;;;2.33;1.60;;;;;;;4.44;100.00;99847.65;1764367;81;21904;-56
2020/12/25 10:06:40;;;;;;;0.72;0.72;;;;;;;4.54;100.00;99840.99;1739639;81;21130;-55
2020/12/25 10:09:08;;;;;;;0.20;0.20;;;;;;;4.62;100.00;99843.23;1755087;81;21134;-55
2020/12/25 10:11:36;;;;;;;0.55;0.55;;;;;;;4.70;100.00;99842.80;1737971;82;21107;-56
2020/12/25 10:14:04;;;;;;;1.15;0.17;;;;;;;4.79;100.00;99847.73;1757099;81;21177;-55
2020/12/25 10:16:33;;;;;;;0.85;0.85;;;;;;;4.88;100.00;99840.80;1740780;80;21704;-55
2020/12/25 10:19:00;;;;;;;0.62;0.62;;;;;;;4.92;100.00;99850.86;1712818;82;21490;-55
2020/12/25 10:21:28;;;;;;;1.22;0.75;;;;;;;4.95;100.00;99849.53;1689082;84;21160;-56
2020/12/25 10:23:55;;;;;;;0.20;0.20;;;;;;;4.96;100.00;99859.27;1769820;80;21218;-55
2020/12/25 10:26:22;;;;;;;0.00;0.00;;;;;;;4.99;100.00;99864.17;1768579;80;21550;-55
2020/12/25 10:28:50;;;;;;;0.85;0.75;;;;;;;4.99;100.00;99861.45;1768590;81;21177;-56
2020/12/25 10:31:17;;;;;;;2.90;0.47;;;;;;;5.00;100.00;99865.02;1742691;81;21465;-55
2020/12/25 10:33:45;;;;;;;0.10;0.10;;;;;;;5.00;100.00;99865.82;1693672;82;21154;-55
2020/12/25 10:36:13;;;;;;;0.00;0.00;;;;;;;4.99;100.00;99860.11;1683012;83;21119;-56
2020/12/25 10:38:41;;;;;;;0.98;0.37;;;;;;;4.96;100.00;99868.20;1698751;83;21174;-56
2020/12/25 10:41:09;;;;;;;0.47;0.47;;;;;;;4.97;100.00;99873.11;1767921;81;21198;-55
2020/12/25 10:43:36;;;;;;;0.15;0.15;;;;;;;4.97;100.00;99870.41;1738012;82;21123;-56
2020/12/25 10:46:04;;;;;;;0.35;0.35;;;;;;;4.97;100.00;99879.87;1739083;81;21205;-55
2020/12/25 10:48:31;;;;;;;0.00;0.00;;;;;;;4.96;100.00;99875.52;1737995;82;21101;-55
2020/12/25 10:50:59;;;;;;;0.50;0.50;;;;;;;4.97;100.00;99877.17;1767550;80;21119;-56
2020/12/25 10:53:26;;;;;;;0.10;0.10;;;;;;;4.96;100.00;99872.81;1764330;80;21130;-55
2020/12/25 10:55:54;;;;;;;0.40;0.40;;;;;;;4.96;100.00;99876.33;1768687;79;21103;-56
2020/12/25 10:58:21;;;;;;;0.05;0.05;;;;;;;5.00;100.00;99878.55;1768139;80;21127;-56
2020/12/25 11:00:49;;;;;;;0.42;0.37;;;;;;;5.01;100.00;99879.63;1768320;81;21123;-56
2020/12/25 11:03:16;;;;;;;0.42;0.28;;;;;;;5.06;100.00;99881.03;1760262;80;21652;-56
2020/12/25 11:05:44;;;;;;;0.00;0.00;;;;;;;5.11;100.00;99871.59;1739789;81;21577;-55
2020/12/25 11:08:11;;;;;;;0.25;0.23;;;;;;;5.17;100.00;99872.48;1738935;81;21553;-56
2020/12/25 11:10:44;;;;;;;0.35;0.35;;;;;;;5.25;100.00;99882.02;1766767;79;21435;-56
2020/12/25 11:13:11;;;;;;;0.55;0.40;;;;;;;5.31;100.00;99880.97;1799003;79;21427;-55
2020/12/25 11:15:40;;;;;;;1.22;1.12;;;;;;;5.37;100.00;99873.19;1762028;79;21131;-56
2020/12/25 11:18:08;;;;;;;0.47;0.40;;;;;;;5.43;100.00;99878.91;1741826;82;21454;-56
2020/12/25 11:20:36;;;;;;;0.68;0.68;;;;;;;5.50;100.00;99880.05;1741168;81;21463;-56
2020/12/25 11:23:03;;;;;;;0.40;0.40;;;;;;;5.54;100.00;99878.47;1741336;81;21124;-56
2020/12/25 11:25:31;;;;;;;1.00;1.00;;;;;;;5.57;100.00;99874.68;1745111;79;21116;-56
2020/12/25 11:27:58;;;;;;;0.10;0.10;;;;;;;5.61;100.00;99891.22;1773451;79;21509;-56
2020/12/25 11:30:26;;;;;;;0.88;0.88;;;;;;;5.64;100.00;99900.22;1752988;79;21171;-56
2020/12/25 11:32:54;;;;;;;0.10;0.10;;;;;;;5.66;100.00;99911.59;1793945;79;21131;-56
2020/12/25 11:35:21;;;;;;;0.62;0.62;;;;;;;5.69;100.00;99908.38;1757861;81;21123;-56
2020/12/25 11:37:49;;;;;;;1.02;0.98;;;;;;;5.73;100.00;99912.19;1760744;81;21181;-57
2020/12/25 11:40:17;;;;;;;0.08;0.08;;;;;;;5.75;100.00;99909.23;1760793;81;21152;-55
2020/12/25 11:42:44;;;;;;;0.28;0.25;;;;;;;5.77;100.00;99909.79;1760918;81;21633;-56
2020/12/25 11:45:13;;;;;;;0.20;0.20;;;;;;;5.77;100.00;99905.72;1778048;79;21570;-56
2020/12/25 11:47:40;;;;;;;1.10;1.10;;;;;;;5.76;100.00;99905.42;1777060;79;21119;-56
2020/12/25 11:50:08;;;;;;;0.28;0.28;;;;;;;5.74;100.00;99900.83;1763223;80;21486;-56
2020/12/25 11:52:35;;;;;;;0.62;0.55;;;;;;;5.73;100.00;99907.31;1791023;79;21602;-57
2020/12/25 11:55:03;;;;;;;0.90;0.65;;;;;;;5.72;100.00;99897.02;1794221;79;21147;-57
2020/12/25 11:57:31;;;;;;;0.33;0.33;;;;;;;5.73;100.00;99896.47;1751695;79;21178;-57
2020/12/25 11:59:58;;;;;;;1.22;0.57;;;;;;;5.74;100.00;99896.77;1758401;79;21672;-57
2020/12/25 12:02:26;;;;;;;0.65;0.65;;;;;;;5.75;100.00;99903.80;1777453;79;21116;-57
2020/12/25 12:04:53;;;;;;;0.10;0.10;;;;;;;5.75;100.00;99908.68;1760816;81;21020;-57
2020/12/25 12:07:21;;;;;;;0.33;0.33;;;;;;;5.76;100.00;99905.42;1762175;81;21172;-57
2020/12/25 12:09:48;;;;;;;1.02;1.02;;;;;;;5.74;100.00;99904.35;1760775;81;21114;-55
2020/12/25 12:12:15;;;;;;;0.28;0.28;;;;;;;5.74;100.00;99917.09;1753534;81;21514;-57
2020/12/25 12:14:43;;;;;;;0.53;0.53;;;;;;;5.73;100.00;99923.58;1748150;79;21388;-57
2020/12/25 12:17:11;;;;;;;1.10;0.85;;;;;;;5.72;100.00;99924.13;1753369;81;21194;-57
2020/12/25 12:19:38;;;;;;;0.15;0.15;;;;;;;5.70;100.00;99922.75;1760985;81;21143;-57
2020/12/25 12:22:06;;;;;;;0.95;0.90;;;;;;;5.69;100.00;99915.70;1761400;81;21133;-57
2020/12/25 12:24:34;;;;;;;0.30;0.30;;;;;;;5.68;100.00;99927.06;1766281;79;21154;-57
2020/12/25 12:27:02;;;;;;;0.62;0.62;;;;;;;5.69;100.00;99938.75;1765140;79;21166;-57
2020/12/25 12:29:29;;;;;;;0.33;0.33;;;;;;;5.68;100.00;99933.03;1748447;81;21181;-57
2020/12/25 12:31:56;;;;;;;2.83;0.72;;;;;;;5.68;100.00;99935.73;1776128;79;21112;-57
2020/12/25 12:34:24;;;;;;;0.55;0.55;;;;;;;5.66;100.00;99920.27;1776877;79;21123;-57
2020/12/25 12:36:52;;;;;;;0.10;0.10;;;;;;;5.65;100.00;99933.55;1747663;81;21582;-57
2020/12/25 12:39:19;;;;;;;0.30;0.30;;;;;;;5.64;100.00;99934.61;1736698;81;21131;-57
2020/12/25 12:41:47;;;;;;;1.12;0.90;;;;;;;5.63;100.00;99935.70;1737409;79;21444;-56
2020/12/25 12:44:14;;;;;;;0.60;0.60;;;;;;;5.63;100.00;99935.70;1762955;79;21110;-57
2020/12/25 12:46:42;;;;;;;1.00;0.98;;;;;;;5.60;100.00;99937.84;1743778;80;21761;-56
2020/12/25 12:49:09;;;;;;;0.82;0.82;;;;;;;5.58;100.00;99931.86;1708666;82;21148;-57